Time;durP1;ratioP1;P1;durP2;ratioP2;P2;SDS_P1;SDS_P2;PMS_P1;PMS_P2;Temp;Humidity;BMP_temperature;BMP_pressure;BME280_temperature;BME280_humidity;BME280_pressure;Samples;Min_cycle;Max_cycle;Signal;HPM_P1;HPM_P2
2024/02/20 00:01:50;;;;;;;77.70;11.75;;;7.20;99.90;;;;;;5025671;28;20040;-72
2024/02/20 00:04:17;;;;;;;66.20;10.52;;;7.10;99.90;;;;;;5026416;28;20048;-71
2024/02/20 00:06:43;;;;;;;65.40;8.95;;;7.10;99.90;;;;;;5040037;28;20522;-71
2024/02/20 00:09:09;;;;;;;68.97;11.02;;;7.00;99.90;;;;;;5017205;28;20044;-71
2024/02/20 00:11:35;;;;;;;63.80;9.10;;;6.90;99.90;;;;;;5028009;28;20109;-71
2024/02/20 00:14:01;;;;;;;72.78;11.07;;;7.00;99.90;;;;;;5019515;28;20131;-71
2024/02/20 00:16:26;;;;;;;71.80;9.18;;;7.00;99.90;;;;;;5045876;28;20044;-71
2024/02/20 00:18:53;;;;;;;75.20;10.85;;;7.00;99.90;;;;;;5028904;28;20162;-71
2024/02/20 00:21:18;;;;;;;62.20;8.98;;;6.90;99.90;;;;;;5025963;28;20044;-71
2024/02/20 00:23:44;;;;;;;78.32;9.13;;;6.90;99.90;;;;;;5045480;28;20392;-71
2024/02/20 00:26:10;;;;;;;34.08;4.80;;;6.80;99.90;;;;;;5020888;28;20060;-71
2024/02/20 00:28:40;;;;;;;56.83;7.68;;;6.80;99.90;;;;;;5046331;28;20087;-71
2024/02/20 00:31:06;;;;;;;63.70;8.00;;;6.70;99.90;;;;;;5035122;28;20159;-71
2024/02/20 00:33:32;;;;;;;63.70;9.80;;;6.80;99.90;;;;;;5027571;28;20087;-71
2024/02/20 00:35:58;;;;;;;39.13;6.22;;;6.70;99.90;;;;;;5021831;28;20037;-71
2024/02/20 00:38:24;;;;;;;66.53;9.50;;;6.70;99.90;;;;;;5023827;28;20055;-71
2024/02/20 00:40:50;;;;;;;65.20;7.20;;;6.60;99.90;;;;;;5064005;28;20040;-71
2024/02/20 00:43:16;;;;;;;50.10;7.30;;;6.70;99.90;;;;;;5044898;28;20448;-71
2024/02/20 00:45:41;;;;;;;48.88;7.88;;;6.60;99.90;;;;;;5042698;28;20044;-71
2024/02/20 00:48:07;;;;;;;65.75;9.38;;;6.60;99.90;;;;;;5027438;28;20453;-71
2024/02/20 00:50:33;;;;;;;73.07;9.75;;;6.60;99.90;;;;;;5045977;28;20486;-72
2024/02/20 00:52:58;;;;;;;58.70;8.05;;;6.60;99.90;;;;;;5021472;28;20573;-71
2024/02/20 00:55:24;;;;;;;59.33;7.88;;;6.50;99.90;;;;;;5045934;28;20083;-71
2024/02/20 00:57:52;;;;;;;61.30;8.10;;;6.50;99.90;;;;;;5044441;28;20403;-71
2024/02/20 01:00:18;;;;;;;57.10;7.85;;;6.40;99.90;;;;;;5029102;28;20053;-70
2024/02/20 01:02:45;;;;;;;61.25;8.07;;;6.40;99.90;;;;;;5029848;28;20097;-71
2024/02/20 01:05:11;;;;;;;63.53;8.15;;;6.30;99.90;;;;;;5011587;28;20303;-70
2024/02/20 01:07:40;;;;;;;51.60;7.95;;;6.30;99.90;;;;;;5033224;28;20534;-71
2024/02/20 01:10:06;;;;;;;48.58;6.78;;;6.30;99.90;;;;;;5023494;28;20049;-71
2024/02/20 01:12:32;;;;;;;58.97;6.95;;;6.30;99.90;;;;;;5042010;28;20423;-71
2024/02/20 01:14:58;;;;;;;53.65;8.35;;;6.20;99.90;;;;;;5011539;28;20108;-71
2024/02/20 01:17:24;;;;;;;42.13;6.22;;;6.30;99.90;;;;;;5036684;28;20064;-71
2024/02/20 01:19:50;;;;;;;60.88;7.40;;;6.20;99.90;;;;;;5028838;28;20032;-71
2024/02/20 01:22:16;;;;;;;53.67;7.82;;;6.20;99.90;;;;;;5025762;28;20083;-71
2024/02/20 01:24:42;;;;;;;59.35;7.05;;;6.10;99.90;;;;;;5051623;28;20481;-71
2024/02/20 01:27:07;;;;;;;66.68;8.45;;;6.20;99.90;;;;;;5033648;28;20065;-71
2024/02/20 01:29:33;;;;;;;48.60;6.45;;;6.20;99.90;;;;;;5030250;28;20094;-71
2024/02/20 01:31:59;;;;;;;67.57;9.95;;;6.20;99.90;;;;;;5027059;28;20054;-71
2024/02/20 01:34:25;;;;;;;7.28;1.65;;;6.20;99.90;;;;;;5028664;28;20461;-71
2024/02/20 01:36:54;;;;;;;48.53;6.43;;;6.10;99.90;;;;;;5021563;28;20082;-71
2024/02/20 01:39:20;;;;;;;69.80;9.77;;;6.10;99.90;;;;;;5043094;28;20052;-71
2024/02/20 01:41:47;;;;;;;48.38;6.93;;;6.10;99.90;;;;;;5022175;28;20412;-72
2024/02/20 01:44:13;;;;;;;46.88;7.25;;;6.00;99.90;;;;;;5043608;28;20391;-71
2024/02/20 01:46:41;;;;;;;54.80;7.22;;;6.00;99.90;;;;;;5024796;28;20048;-71
2024/02/20 01:49:07;;;;;;;74.97;8.95;;;6.00;99.90;;;;;;5024363;28;20044;-71
2024/02/20 01:51:35;;;;;;;58.30;7.32;;;6.00;99.90;;;;;;5042843;28;20044;-71
2024/02/20 01:54:03;;;;;;;63.05;8.70;;;6.00;99.90;;;;;;5026868;28;20087;-71
2024/02/20 01:56:29;;;;;;;66.78;7.10;;;5.90;99.90;;;;;;5018428;28;20041;-71
2024/02/20 01:58:58;;;;;;;61.85;8.30;;;6.00;99.90;;;;;;5008794;28;20051;-71
2024/02/20 02:01:25;;;;;;;72.57;9.47;;;5.90;99.90;;;;;;5042910;28;20048;-71
2024/02/20 02:03:54;;;;;;;55.75;7.95;;;6.00;99.90;;;;;;5028388;28;20062;-71
2024/02/20 02:06:29;;;;;;;66.57;7.00;;;6.00;99.90;;;;;;5043262;28;20384;-71
2024/02/20 02:08:55;;;;;;;57.83;8.23;;;6.00;99.90;;;;;;5043213;28;20470;-71
2024/02/20 02:11:21;;;;;;;69.40;8.27;;;6.00;99.90;;;;;;5018886;28;20080;-71
2024/02/20 02:13:47;;;;;;;65.47;8.38;;;6.00;99.90;;;;;;5011310;28;20127;-71
2024/02/20 02:16:13;;;;;;;36.78;4.65;;;6.00;99.90;;;;;;5015835;28;20672;-72
2024/02/20 02:18:40;;;;;;;65.25;9.40;;;6.00;99.90;;;;;;5042814;28;20127;-71
2024/02/20 02:21:06;;;;;;;17.55;2.97;;;6.00;99.90;;;;;;5052685;28;20048;-71
2024/02/20 02:23:31;;;;;;;48.13;6.03;;;6.00;99.90;;;;;;5023461;28;20490;-71
2024/02/20 02:25:57;;;;;;;68.50;6.78;;;6.10;99.90;;;;;;5025123;28;20403;-72
2024/02/20 02:28:23;;;;;;;20.38;3.65;;;6.10;99.90;;;;;;5009965;28;20086;-72
2024/02/20 02:30:48;;;;;;;24.40;2.67;;;6.10;99.90;;;;;;5020783;28;20044;-72
2024/02/20 02:33:15;;;;;;;35.85;4.55;;;6.10;99.90;;;;;;5009783;28;20053;-71
2024/02/20 02:35:41;;;;;;;31.33;5.35;;;6.10;99.90;;;;;;5004427;28;20044;-71
2024/02/20 02:38:06;;;;;;;19.10;2.47;;;6.10;99.90;;;;;;5032327;28;20518;-71
2024/02/20 02:40:32;;;;;;;49.90;6.25;;;6.00;99.90;;;;;;5015220;28;20459;-71
2024/02/20 02:42:58;;;;;;;21.85;3.42;;;6.10;99.90;;;;;;5032451;28;20404;-71
2024/02/20 02:45:24;;;;;;;38.10;5.32;;;6.10;99.90;;;;;;5024039;28;20568;-71
2024/02/20 02:47:54;;;;;;;14.15;2.75;;;6.10;99.90;;;;;;5043326;28;20546;-72
2024/02/20 02:50:19;;;;;;;38.53;4.63;;;6.10;99.90;;;;;;5048462;28;20037;-71
2024/02/20 02:52:45;;;;;;;19.90;2.40;;;6.00;99.90;;;;;;5038832;28;20526;-71
2024/02/20 02:55:11;;;;;;;43.42;5.72;;;6.10;99.90;;;;;;5005700;28;20216;-71
2024/02/20 02:57:36;;;;;;;40.25;4.95;;;6.10;99.90;;;;;;5050459;28;20063;-71
2024/02/20 03:00:08;;;;;;;16.88;2.45;;;6.20;99.90;;;;;;5026496;28;20392;-72
2024/02/20 03:02:34;;;;;;;68.90;7.70;;;6.10;99.90;;;;;;5043127;28;20105;-71
2024/02/20 03:05:00;;;;;;;57.78;7.22;;;6.10;99.90;;;;;;5007120;28;20061;-71
2024/02/20 03:07:26;;;;;;;17.63;3.17;;;6.10;99.90;;;;;;5037884;28;20076;-71
2024/02/20 03:09:51;;;;;;;62.53;8.18;;;6.20;99.90;;;;;;5047627;28;20082;-72
2024/02/20 03:12:17;;;;;;;50.70;6.25;;;6.20;99.90;;;;;;5040650;28;20130;-71
2024/02/20 03:14:43;;;;;;;41.97;6.38;;;6.20;99.90;;;;;;5030584;28;20041;-71
2024/02/20 03:17:09;;;;;;;53.40;7.18;;;6.20;99.90;;;;;;5039333;28;20538;-71
2024/02/20 03:19:34;;;;;;;40.30;5.68;;;6.20;99.90;;;;;;5047671;28;20376;-71
2024/02/20 03:22:02;;;;;;;59.45;7.85;;;6.20;99.90;;;;;;5034157;28;20040;-71
2024/02/20 03:24:28;;;;;;;37.50;5.18;;;6.20;99.90;;;;;;5045058;28;20039;-72
2024/02/20 03:26:55;;;;;;;40.13;5.45;;;6.10;99.90;;;;;;5030542;28;20514;-71
2024/02/20 03:29:21;;;;;;;23.23;3.97;;;6.10;99.90;;;;;;5047232;28;20036;-72
2024/02/20 03:31:47;;;;;;;49.05;6.65;;;6.20;99.90;;;;;;5042178;28;20289;-71
2024/02/20 03:34:12;;;;;;;44.17;5.68;;;6.10;99.90;;;;;;5033871;28;20041;-72
2024/02/20 03:36:38;;;;;;;33.08;4.00;;;6.10;99.90;;;;;;5030141;28;20041;-71
2024/02/20 03:39:04;;;;;;;20.58;3.33;;;6.10;99.90;;;;;;5018870;28;20100;-72
2024/02/20 03:41:30;;;;;;;24.98;3.90;;;6.10;99.90;;;;;;5067055;28;20070;-72
2024/02/20 03:43:55;;;;;;;32.67;3.45;;;6.10;99.90;;;;;;5032295;28;20048;-71
2024/02/20 03:46:21;;;;;;;15.40;2.80;;;6.10;99.90;;;;;;5042917;28;20049;-71
2024/02/20 03:48:47;;;;;;;30.67;3.15;;;6.00;99.90;;;;;;5017627;28;20932;-71
2024/02/20 03:51:12;;;;;;;22.63;3.20;;;6.00;99.90;;;;;;5030450;28;20080;-72
2024/02/20 03:53:38;;;;;;;35.40;4.07;;;6.00;99.90;;;;;;5044406;28;20079;-71
2024/02/20 03:56:10;;;;;;;16.60;2.72;;;6.00;99.90;;;;;;5042986;28;20052;-72
2024/02/20 03:58:35;;;;;;;22.08;3.42;;;6.00;99.90;;;;;;5044051;28;20083;-72
2024/02/20 04:01:01;;;;;;;26.92;3.35;;;6.00;99.90;;;;;;5046337;28;20040;-72
2024/02/20 04:03:27;;;;;;;36.60;4.47;;;6.10;99.90;;;;;;5045313;28;20079;-72
2024/02/20 04:05:53;;;;;;;30.25;3.38;;;6.00;99.90;;;;;;5013388;28;20044;-71
2024/02/20 04:08:19;;;;;;;27.38;2.95;;;6.00;99.90;;;;;;5046623;28;20048;-71
2024/02/20 04:10:45;;;;;;;35.33;4.13;;;6.00;99.90;;;;;;5023819;28;20036;-71
2024/02/20 04:13:10;;;;;;;24.58;2.25;;;6.00;99.90;;;;;;5034812;28;20048;-72
2024/02/20 04:15:37;;;;;;;22.50;3.15;;;6.00;99.90;;;;;;5036591;28;20372;-72
2024/02/20 04:18:03;;;;;;;33.60;4.10;;;6.10;99.90;;;;;;5044422;28;20132;-72
2024/02/20 04:20:28;;;;;;;26.40;3.38;;;6.10;99.90;;;;;;5021326;28;20133;-72
2024/02/20 04:22:54;;;;;;;40.97;4.28;;;6.10;99.90;;;;;;5035416;28;20173;-71
2024/02/20 04:25:20;;;;;;;33.67;4.63;;;6.10;99.90;;;;;;5028712;28;20053;-72
2024/02/20 04:27:47;;;;;;;17.38;3.33;;;6.10;99.90;;;;;;5032951;28;20060;-72
2024/02/20 04:30:32;;;;;;;46.25;4.82;;;6.10;99.90;;;;;;5057687;28;20490;-72
2024/02/20 04:33:17;;;;;;;40.25;4.20;;;6.10;99.90;;;;;;5050777;28;20124;-72
2024/02/20 04:36:01;;;;;;;52.25;6.78;;;6.10;99.90;;;;;;5058286;28;20540;-71
2024/02/20 04:38:46;;;;;;;25.88;4.03;;;6.00;99.90;;;;;;5043353;28;20110;-72
2024/02/20 04:41:31;;;;;;;42.40;3.50;;;6.10;99.90;;;;;;5050270;28;20456;-72
2024/02/20 04:44:15;;;;;;;41.40;3.80;;;6.10;99.90;;;;;;5062408;28;20068;-72
2024/02/20 04:47:00;;;;;;;34.50;3.65;;;6.10;99.90;;;;;;5033640;28;20085;-72
2024/02/20 04:49:44;;;;;;;33.40;3.20;;;6.00;99.90;;;;;;5035170;28;20214;-72
2024/02/20 04:52:28;;;;;;;28.63;3.53;;;6.10;99.90;;;;;;5038606;28;20059;-72
2024/02/20 04:55:13;;;;;;;33.17;3.95;;;6.00;99.90;;;;;;5037674;28;20877;-72
2024/02/20 04:57:57;;;;;;;35.33;3.95;;;6.10;99.90;;;;;;5032944;28;20078;-71
2024/02/20 05:00:42;;;;;;;41.83;6.95;;;6.10;99.90;;;;;;5053562;28;20043;-73
2024/02/20 05:03:26;;;;;;;32.95;3.95;;;6.10;99.90;;;;;;5052081;28;20067;-71
2024/02/20 05:06:15;;;;;;;34.65;3.75;;;6.00;99.90;;;;;;5041866;28;20044;-72
2024/02/20 05:09:00;;;;;;;27.30;3.80;;;6.20;99.90;;;;;;5041198;28;20131;-72
2024/02/20 05:11:44;;;;;;;26.20;3.92;;;6.10;99.90;;;;;;5061288;28;20036;-72
2024/02/20 05:14:28;;;;;;;33.97;3.85;;;6.10;99.90;;;;;;5046281;28;20047;-72
2024/02/20 05:17:12;;;;;;;32.88;3.75;;;6.10;99.90;;;;;;5047663;28;20067;-72
2024/02/20 05:19:38;;;;;;;28.50;3.38;;;6.10;99.90;;;;;;5027449;28;20082;-72
2024/02/20 05:22:04;;;;;;;31.70;3.65;;;6.20;99.90;;;;;;5050881;28;20137;-72
2024/02/20 05:24:30;;;;;;;27.88;3.25;;;6.20;99.90;;;;;;5042669;28;20468;-71
2024/02/20 05:26:55;;;;;;;41.47;3.97;;;6.20;99.90;;;;;;5034339;28;20055;-72
2024/02/20 05:29:21;;;;;;;48.40;4.72;;;6.20;99.90;;;;;;5039184;28;20072;-71
2024/02/20 05:31:47;;;;;;;27.20;4.45;;;6.20;99.90;;;;;;5026998;28;20044;-72
2024/02/20 05:34:13;;;;;;;25.45;3.10;;;6.20;99.90;;;;;;5025290;28;20075;-72
2024/02/20 05:36:39;;;;;;;24.02;3.47;;;6.20;99.90;;;;;;5026071;28;20080;-72
2024/02/20 05:39:07;;;;;;;35.63;3.20;;;6.20;99.90;;;;;;5033595;28;20052;-72
2024/02/20 05:41:33;;;;;;;16.63;2.60;;;6.20;99.90;;;;;;5027300;28;20109;-72
2024/02/20 05:43:59;;;;;;;20.98;3.85;;;6.20;99.90;;;;;;5040973;28;20044;-72
2024/02/20 05:46:30;;;;;;;33.40;3.50;;;6.20;99.90;;;;;;5025246;28;20040;-72
2024/02/20 05:48:56;;;;;;;46.17;4.18;;;6.10;99.90;;;;;;5027078;28;20243;-72
2024/02/20 05:51:23;;;;;;;25.45;5.47;;;6.10;99.90;;;;;;5043930;28;20051;-72
2024/02/20 05:53:52;;;;;;;28.08;3.63;;;6.00;99.90;;;;;;5035415;28;20525;-72
2024/02/20 05:56:18;;;;;;;23.15;3.58;;;6.00;99.90;;;;;;5021230;28;20127;-72
2024/02/20 05:58:44;;;;;;;34.30;3.58;;;6.00;99.90;;;;;;5026340;28;20090;-72
2024/02/20 06:01:11;;;;;;;36.60;3.83;;;6.00;99.90;;;;;;5039545;28;20051;-72
2024/02/20 06:03:37;;;;;;;40.63;4.07;;;6.00;99.90;;;;;;5043348;28;20040;-72
2024/02/20 06:06:10;;;;;;;34.92;3.78;;;6.10;99.90;;;;;;5021049;28;20047;-72
2024/02/20 06:08:40;;;;;;;45.78;5.07;;;6.10;99.90;;;;;;5026869;28;20048;-72
2024/02/20 06:11:06;;;;;;;26.85;3.67;;;6.10;99.90;;;;;;5037014;28;20044;-72
2024/02/20 06:13:32;;;;;;;20.00;2.67;;;6.10;99.90;;;;;;5043651;28;20048;-72
2024/02/20 06:15:57;;;;;;;27.95;3.40;;;6.10;99.90;;;;;;5033619;28;20045;-72
2024/02/20 06:18:23;;;;;;;35.30;4.45;;;6.20;99.90;;;;;;5044109;28;20473;-72
2024/02/20 06:20:49;;;;;;;24.20;3.20;;;6.10;99.90;;;;;;5012812;28;20080;-72
2024/02/20 06:23:15;;;;;;;38.70;3.45;;;6.00;99.90;;;;;;5018876;28;20056;-72
2024/02/20 06:25:43;;;;;;;40.90;4.63;;;6.00;99.90;;;;;;5010037;28;20053;-72
2024/02/20 06:28:09;;;;;;;36.80;3.80;;;6.00;99.90;;;;;;5026259;28;20061;-72
2024/02/20 06:30:35;;;;;;;40.45;4.18;;;6.00;99.90;;;;;;5035692;28;20141;-72
2024/02/20 06:33:02;;;;;;;44.83;4.35;;;6.00;99.90;;;;;;5043820;28;20048;-72
2024/02/20 06:35:28;;;;;;;39.35;4.45;;;6.00;99.90;;;;;;5043944;28;20048;-72
2024/02/20 06:37:54;;;;;;;35.95;3.88;;;6.10;99.90;;;;;;5042661;28;20064;-72
2024/02/20 06:40:19;;;;;;;46.70;4.13;;;6.00;99.90;;;;;;5022060;28;20044;-72
2024/02/20 06:42:45;;;;;;;47.53;4.22;;;6.10;99.90;;;;;;5045367;28;20080;-72
2024/02/20 06:45:11;;;;;;;33.20;3.92;;;6.00;99.90;;;;;;5017726;28;20172;-73
2024/02/20 06:47:37;;;;;;;45.70;4.90;;;6.00;99.90;;;;;;5038520;28;20056;-72
2024/02/20 06:50:04;;;;;;;44.50;4.78;;;6.10;99.90;;;;;;5023866;28;20395;-72
2024/02/20 06:52:29;;;;;;;41.95;3.70;;;6.10;99.90;;;;;;5043815;28;20087;-72
2024/02/20 06:54:55;;;;;;;40.45;4.00;;;6.00;99.90;;;;;;5027689;28;20142;-72
2024/02/20 06:57:21;;;;;;;33.28;3.85;;;6.10;99.90;;;;;;5027542;28;20559;-72
2024/02/20 06:59:46;;;;;;;41.25;3.92;;;6.10;99.90;;;;;;5040409;28;20049;-71
2024/02/20 07:02:12;;;;;;;39.47;4.15;;;6.10;99.90;;;;;;5043756;28;20526;-72
2024/02/20 07:04:40;;;;;;;42.63;4.32;;;6.20;99.90;;;;;;5025542;28;20133;-72
2024/02/20 07:07:06;;;;;;;43.67;5.13;;;6.20;99.90;;;;;;5043637;28;20048;-72
2024/02/20 07:09:32;;;;;;;52.90;5.28;;;6.20;99.90;;;;;;5016352;28;20399;-72
2024/02/20 07:11:57;;;;;;;31.45;3.63;;;6.20;99.90;;;;;;5042942;28;20060;-72
2024/02/20 07:14:23;;;;;;;34.28;3.88;;;6.30;99.90;;;;;;5010383;28;20056;-72
2024/02/20 07:16:49;;;;;;;43.92;5.15;;;6.20;99.90;;;;;;5037368;28;20060;-72
2024/02/20 07:19:15;;;;;;;48.38;4.40;;;6.20;99.90;;;;;;5038203;28;20044;-72
2024/02/20 07:21:40;;;;;;;34.30;4.07;;;6.30;99.90;;;;;;5020382;28;20045;-72
2024/02/20 07:24:06;;;;;;;44.67;4.45;;;6.30;99.90;;;;;;5057294;28;20045;-72
2024/02/20 07:26:32;;;;;;;32.67;4.45;;;6.40;99.90;;;;;;5007934;28;20052;-72
2024/02/20 07:28:58;;;;;;;43.53;4.22;;;6.40;99.90;;;;;;5038436;28;20498;-72
2024/02/20 07:31:24;;;;;;;44.20;4.43;;;6.30;99.90;;;;;;5023713;28;20487;-72
2024/02/20 07:33:50;;;;;;;47.90;4.63;;;6.40;99.90;;;;;;5034674;28;20120;-72
2024/02/20 07:36:16;;;;;;;45.40;4.38;;;6.40;99.90;;;;;;5016290;28;20335;-72
2024/02/20 07:38:46;;;;;;;49.03;4.60;;;6.50;99.90;;;;;;5010691;28;20129;-73
2024/02/20 07:41:12;;;;;;;43.50;4.57;;;6.40;99.90;;;;;;5031311;28;20136;-72
2024/02/20 07:43:41;;;;;;;41.05;4.65;;;6.40;99.90;;;;;;5011788;28;20051;-72
2024/02/20 07:46:07;;;;;;;42.50;4.05;;;6.50;99.90;;;;;;5044449;28;20060;-72
2024/02/20 07:48:33;;;;;;;45.75;4.70;;;6.60;99.90;;;;;;5045744;28;20410;-72
2024/02/20 07:50:58;;;;;;;47.05;4.70;;;6.60;99.90;;;;;;5045072;28;20048;-72
2024/02/20 07:53:24;;;;;;;58.05;5.80;;;6.60;99.90;;;;;;5047095;28;20048;-72
2024/02/20 07:55:50;;;;;;;49.22;4.57;;;6.70;99.90;;;;;;5036821;28;20069;-72
2024/02/20 07:58:16;;;;;;;49.38;5.30;;;6.70;99.90;;;;;;5033542;28;20049;-73
2024/02/20 08:00:42;;;;;;;42.58;4.40;;;6.70;99.90;;;;;;5031105;28;20045;-72
2024/02/20 08:03:08;;;;;;;35.63;3.80;;;6.80;99.90;;;;;;5046164;28;20451;-72
2024/02/20 08:05:34;;;;;;;46.53;4.38;;;6.80;99.90;;;;;;5030480;28;20131;-72
2024/02/20 08:07:59;;;;;;;46.97;3.88;;;6.80;99.90;;;;;;5037528;28;20048;-73
2024/02/20 08:10:25;;;;;;;39.85;4.03;;;6.90;99.90;;;;;;5033973;28;20084;-72
2024/02/20 08:12:51;;;;;;;31.38;3.67;;;6.90;99.90;;;;;;5025621;28;20052;-73
2024/02/20 08:15:17;;;;;;;46.28;4.35;;;6.90;99.90;;;;;;5039586;28;20073;-73
2024/02/20 08:17:42;;;;;;;41.53;4.47;;;7.00;99.90;;;;;;5027109;28;20455;-72
2024/02/20 08:20:09;;;;;;;47.78;4.90;;;7.00;99.90;;;;;;5021547;28;20234;-72
2024/02/20 08:22:35;;;;;;;47.58;5.22;;;7.10;99.90;;;;;;5015487;28;20052;-73
2024/02/20 08:25:01;;;;;;;54.85;5.38;;;7.10;99.90;;;;;;5019773;28;20063;-72
2024/02/20 08:27:26;;;;;;;40.72;4.57;;;7.20;99.90;;;;;;5042847;28;20118;-72
2024/02/20 08:29:54;;;;;;;34.13;4.40;;;7.20;99.90;;;;;;5033764;28;20036;-72
2024/02/20 08:32:19;;;;;;;44.42;4.95;;;7.20;99.90;;;;;;5026025;28;20054;-72
2024/02/20 08:34:45;;;;;;;37.78;3.60;;;7.20;99.90;;;;;;5031747;28;20048;-72
2024/02/20 08:37:12;;;;;;;42.63;4.95;;;7.30;99.90;;;;;;5035673;28;20309;-72
2024/02/20 08:39:38;;;;;;;45.35;4.20;;;7.30;99.90;;;;;;5019419;28;20480;-72
2024/02/20 08:42:03;;;;;;;50.80;4.80;;;7.30;99.90;;;;;;5029925;28;20045;-72
2024/02/20 08:44:29;;;;;;;33.90;3.85;;;7.30;99.90;;;;;;5025509;28;20269;-72
2024/02/20 08:46:56;;;;;;;35.60;4.57;;;7.40;99.90;;;;;;5030143;28;20098;-72
2024/02/20 08:49:21;;;;;;;44.00;4.78;;;7.40;99.90;;;;;;5020084;28;20534;-72
2024/02/20 08:51:47;;;;;;;30.95;3.20;;;7.40;99.90;;;;;;5013287;28;20037;-72
2024/02/20 08:54:13;;;;;;;34.33;4.97;;;7.40;99.90;;;;;;5004279;28;20531;-72
2024/02/20 08:56:38;;;;;;;48.53;4.50;;;7.50;99.90;;;;;;5037143;28;20048;-72
2024/02/20 08:59:04;;;;;;;45.95;4.68;;;7.60;99.90;;;;;;5036747;28;20045;-72
2024/02/20 09:01:30;;;;;;;39.83;4.38;;;7.60;99.90;;;;;;5041427;28;20048;-72
2024/02/20 09:03:56;;;;;;;37.30;3.65;;;7.70;99.90;;;;;;5139174;22;20113;-63
2024/02/20 09:06:22;;;;;;;43.65;5.53;;;7.80;99.90;;;;;;5054373;28;20044;-63
2024/02/20 09:08:47;;;;;;;49.30;5.93;;;7.80;99.90;;;;;;5060065;28;20068;-64
2024/02/20 09:11:13;;;;;;;44.85;4.90;;;7.90;99.90;;;;;;5061562;28;20095;-63
2024/02/20 09:13:39;;;;;;;45.60;6.10;;;7.90;99.90;;;;;;5059064;28;20043;-63
2024/02/20 09:16:05;;;;;;;40.85;4.63;;;7.90;99.90;;;;;;5050767;28;20041;-63
2024/02/20 09:18:35;;;;;;;54.75;5.32;;;8.00;99.90;;;;;;5051305;28;20482;-64
2024/02/20 09:21:01;;;;;;;42.53;5.28;;;8.10;99.90;;;;;;5056745;28;20040;-63
2024/02/20 09:23:26;;;;;;;52.33;5.93;;;8.20;99.90;;;;;;5058612;28;20545;-64
2024/02/20 09:25:52;;;;;;;49.60;5.35;;;8.20;99.90;;;;;;5068890;28;20052;-63
2024/02/20 09:28:18;;;;;;;44.25;4.47;;;8.30;99.90;;;;;;5063228;28;20044;-63
2024/02/20 09:30:44;;;;;;;44.30;6.10;;;8.40;99.90;;;;;;5020757;28;20241;-64
2024/02/20 09:33:12;;;;;;;44.65;5.78;;;8.40;99.90;;;;;;5057909;28;20553;-64
2024/02/20 09:35:38;;;;;;;34.55;5.20;;;8.50;99.90;;;;;;5048322;28;20041;-64
2024/02/20 09:38:04;;;;;;;55.40;6.10;;;8.60;99.90;;;;;;5058233;28;20409;-65
2024/02/20 09:40:30;;;;;;;44.72;5.00;;;8.70;99.90;;;;;;5063557;28;20041;-64
2024/02/20 09:43:00;;;;;;;35.47;6.05;;;8.80;99.90;;;;;;5053019;28;20578;-64
2024/02/20 09:45:27;;;;;;;47.00;6.60;;;8.80;99.90;;;;;;5062263;28;20044;-63
2024/02/20 09:47:53;;;;;;;41.08;5.13;;;8.90;99.90;;;;;;5056887;28;20052;-64
2024/02/20 09:50:20;;;;;;;31.45;5.20;;;8.90;99.90;;;;;;5067974;28;20439;-64
2024/02/20 09:52:51;;;;;;;29.85;5.43;;;9.00;99.90;;;;;;5065089;28;20044;-64
2024/02/20 09:55:22;;;;;;;43.63;6.75;;;9.00;99.90;;;;;;5045803;28;20524;-64
2024/02/20 09:57:49;;;;;;;32.92;5.13;;;9.00;99.90;;;;;;5059214;28;20044;-63
2024/02/20 10:00:17;;;;;;;53.55;6.78;;;9.00;99.90;;;;;;5059226;28;20040;-64
2024/02/20 10:02:45;;;;;;;31.45;5.68;;;8.90;99.90;;;;;;5058128;28;20088;-63
2024/02/20 10:05:15;;;;;;;35.38;5.25;;;8.90;99.90;;;;;;5053096;28;20048;-64
2024/02/20 10:07:42;;;;;;;30.25;4.38;;;8.90;99.90;;;;;;5053645;28;21683;-64
2024/02/20 10:10:09;;;;;;;42.38;5.60;;;8.80;99.90;;;;;;5054926;28;20521;-64
2024/02/20 10:12:39;;;;;;;42.88;6.38;;;8.90;99.90;;;;;;5060829;28;20048;-64
2024/02/20 10:15:06;;;;;;;47.40;7.88;;;8.90;99.90;;;;;;5053843;28;20410;-64
2024/02/20 10:17:32;;;;;;;37.13;6.20;;;8.90;99.90;;;;;;5049749;28;20060;-63
2024/02/20 10:20:13;;;;;;;44.97;6.45;;;8.90;99.90;;;;;;5036839;28;20037;-64
2024/02/20 10:22:40;;;;;;;32.78;6.03;;;8.90;99.90;;;;;;5057686;28;20574;-64
2024/02/20 10:25:13;;;;;;;47.40;6.80;;;9.00;99.90;;;;;;5058689;28;20037;-64
2024/02/20 10:27:40;;;;;;;44.83;7.03;;;9.00;99.90;;;;;;5062735;28;20052;-64
2024/02/20 10:30:07;;;;;;;42.08;6.63;;;9.10;99.90;;;;;;5057378;28;20033;-63
2024/02/20 10:32:36;;;;;;;43.95;6.15;;;9.20;99.90;;;;;;5062173;28;20067;-64
2024/02/20 10:35:03;;;;;;;44.08;6.78;;;9.30;99.90;;;;;;5048903;28;20686;-63
2024/02/20 10:37:29;;;;;;;44.80;6.25;;;9.30;99.90;;;;;;5065940;28;20736;-64
2024/02/20 10:40:08;;;;;;;42.33;7.85;;;9.30;99.90;;;;;;5059062;28;20063;-63
2024/02/20 10:42:39;;;;;;;42.70;6.75;;;9.30;99.90;;;;;;5058670;28;20562;-63
2024/02/20 10:45:24;;;;;;;44.40;7.90;;;9.40;99.90;;;;;;5041983;28;20495;-64
2024/02/20 10:47:52;;;;;;;43.28;6.05;;;9.40;99.90;;;;;;5049840;28;20055;-64
2024/02/20 10:50:18;;;;;;;34.72;5.32;;;9.40;99.90;;;;;;5049467;28;20093;-63
2024/02/20 10:52:44;;;;;;;33.83;6.25;;;9.40;99.90;;;;;;5052153;28;20544;-65
2024/02/20 10:55:11;;;;;;;36.75;7.05;;;9.40;99.90;;;;;;5058815;28;20316;-64
2024/02/20 10:57:39;;;;;;;39.22;5.78;;;9.50;99.90;;;;;;5041382;28;20125;-64
2024/02/20 11:00:11;;;;;;;35.50;5.78;;;9.50;99.90;;;;;;5063133;28;20049;-64
2024/02/20 11:02:42;;;;;;;38.42;5.55;;;9.50;99.90;;;;;;5060795;28;20092;-64
2024/02/20 11:05:14;;;;;;;34.28;5.05;;;9.50;99.90;;;;;;5060399;28;20151;-64
2024/02/20 11:07:41;;;;;;;53.40;7.07;;;9.50;99.90;;;;;;5061490;28;20040;-64
2024/02/20 11:10:10;;;;;;;33.88;5.53;;;9.50;99.90;;;;;;5047304;28;20072;-64
2024/02/20 11:12:37;;;;;;;35.85;6.00;;;9.40;99.90;;;;;;5066907;28;20053;-64
2024/02/20 11:15:22;;;;;;;34.22;6.15;;;9.40;99.90;;;;;;5064085;28;20045;-64
2024/02/20 11:17:53;;;;;;;38.17;5.63;;;9.50;99.90;;;;;;5060135;28;20481;-64
2024/02/20 11:20:23;;;;;;;29.48;5.15;;;9.60;99.90;;;;;;5059382;28;20064;-64
2024/02/20 11:22:51;;;;;;;;;;;9.60;99.90;;;;;;5065284;28;20040;-64
2024/02/20 11:25:20;;;;;;;27.65;4.13;;;9.60;99.90;;;;;;5066509;28;20011;-65
2024/02/20 11:27:47;;;;;;;41.72;5.85;;;9.60;99.90;;;;;;5060060;28;20049;-64
2024/02/20 11:30:24;;;;;;;36.83;5.53;;;9.60;99.90;;;;;;5064259;28;20048;-64
2024/02/20 11:32:55;;;;;;;19.45;4.30;;;9.70;99.90;;;;;;5056960;28;20076;-64
2024/02/20 11:35:32;;;;;;;35.53;5.65;;;9.70;99.90;;;;;;5059430;28;20041;-64
2024/02/20 11:38:00;;;;;;;30.10;5.25;;;9.70;99.90;;;;;;5039424;28;20045;-64
2024/02/20 11:40:33;;;;;;;24.05;4.53;;;9.80;99.90;;;;;;5061660;28;20486;-64
2024/02/20 11:43:04;;;;;;;35.58;7.28;;;9.80;99.90;;;;;;5047165;28;20382;-64
2024/02/20 11:46:04;;;;;;;27.17;3.65;;;9.80;99.90;;;;;;5061629;28;20495;-64
2024/02/20 11:48:31;;;;;;;30.33;4.40;;;9.90;99.90;;;;;;5055831;28;20051;-64
2024/02/20 11:50:57;;;;;;;50.55;7.75;;;10.00;99.90;;;;;;5021096;28;20072;-64
2024/02/20 11:53:23;;;;;;;34.95;6.28;;;10.10;99.90;;;;;;5061117;28;20079;-64
2024/02/20 11:55:53;;;;;;;34.78;6.03;;;10.10;99.90;;;;;;5064335;28;20475;-64
2024/02/20 11:58:25;;;;;;;;;;;10.10;99.90;;;;;;5062139;28;20076;-64
2024/02/20 12:00:54;;;;;;;38.42;6.18;;;10.00;99.90;;;;;;5046733;28;20002;-64
2024/02/20 12:03:52;;;;;;;46.05;7.65;;;10.00;99.90;;;;;;5058579;28;20198;-64
2024/02/20 12:06:27;;;;;;;37.22;6.43;;;10.00;99.90;;;;;;5060796;28;20059;-64
2024/02/20 12:08:57;;;;;;;29.42;5.22;;;10.00;99.90;;;;;;5051716;28;20051;-64
2024/02/20 12:11:27;;;;;;;22.52;4.53;;;10.10;99.90;;;;;;5055443;28;20506;-64
2024/02/20 12:17:37;;;;;;;40.28;6.22;;;10.20;99.90;;;;;;5044906;28;20040;-64
2024/02/20 12:20:05;;;;;;;29.02;5.28;;;10.30;99.90;;;;;;5051337;28;20052;-64
2024/02/20 12:22:30;;;;;;;42.25;5.65;;;10.30;99.90;;;;;;5063181;28;20055;-64
2024/02/20 12:25:08;;;;;;;40.92;5.97;;;10.30;99.90;;;;;;5043289;28;20036;-64
2024/02/20 12:27:35;;;;;;;17.42;2.88;;;10.30;99.90;;;;;;5056196;28;20064;-65
2024/02/20 12:30:02;;;;;;;27.85;4.25;;;10.40;99.90;;;;;;5070061;28;20069;-64
2024/02/20 12:32:29;;;;;;;28.67;5.32;;;10.30;99.90;;;;;;5058948;28;20088;-64
2024/02/20 12:41:56;;;;;;;13.13;2.50;;;10.30;99.90;;;;;;5068871;22;20048;-70
2024/02/20 12:44:36;;;;;;;37.65;6.32;;;10.30;99.90;;;;;;5030335;28;20052;-70
2024/02/20 12:47:03;;;;;;;47.38;6.60;;;10.30;99.90;;;;;;5043668;28;20056;-70
2024/02/20 12:50:04;;;;;;;45.00;7.38;;;10.30;99.90;;;;;;5031995;28;20086;-70
2024/02/20 12:53:06;;;;;;;36.00;6.03;;;10.30;99.90;;;;;;4985870;28;20080;-70
2024/02/20 12:55:37;;;;;;;33.45;5.93;;;10.30;99.90;;;;;;5034973;28;20076;-70
2024/02/20 12:58:10;;;;;;;52.80;6.60;;;10.30;99.90;;;;;;5047104;28;20097;-70
2024/02/20 13:00:37;;;;;;;35.05;5.50;;;10.30;99.90;;;;;;5025531;28;20131;-70
2024/02/20 13:03:04;;;;;;;34.60;6.22;;;10.30;99.90;;;;;;5046067;28;20095;-70